Hovedside
METAR-TAF:

METAR-TAF

Lufthavner :

Førde, Norge

Førde lufthamn. Bringeland

breddegrad: 61-27N, lengdegrad: 005-52E, høyde over havet: 150 m

Gjeldene værobservasjon

Denne rapporten ble laget for 1 time og 8 minutter siden, klokken 07:20 UTC
Vind 5 kt fra Øst-sørøst
Temperatur -1°C
Luftfuktighet 46%
Trykk 1004 hPa
Sikt 10 km eller mer
Få skyer i en høyde av 5000 ft
Brutte skyer i en høyde av 10000 ft

METAR: ENBL 220720Z 12005KT 9999 FEW050 BKN100 M01/M11 Q1004

Tid: 09:28 (08:28 UTC)


TAF: fraværende

Værobservasjoner og værvarsel for over 4000 flyplasser (METAR- og TAF-rapporter).

Tilgjengelige stasjoner er representert av de røde og gule prikkene på kartet.

Hold musepekeren over prikken for å se navnet på stasjonen.

Klikk så for å se værobservasjoner og -varsler.

For å forandre kartet kan du klikke på den grønne knappen med svart kryss for å zoome inn, på den grønne knappen med strek for å zoome ut, eller på de grønne pilene for å se tilstøtende kart.


METAR-TAF: